createdAt,value
2017-08-03T00:02:21.680Z,12.33
2017-08-03T00:04:50.330Z,12.63
2017-08-03T00:07:18.678Z,11.90
2017-08-03T00:09:47.039Z,11.97
2017-08-03T00:12:15.871Z,13.53
2017-08-03T00:14:44.203Z,14.53
2017-08-03T00:17:12.564Z,13.70
2017-08-03T00:19:41.522Z,13.43
2017-08-03T00:22:09.859Z,12.50
2017-08-03T00:24:38.200Z,12.97
2017-08-03T00:27:06.806Z,13.17
2017-08-03T00:29:35.165Z,14.47
2017-08-03T00:32:03.493Z,13.60
2017-08-03T00:34:32.402Z,13.90
2017-08-03T00:37:00.769Z,11.97
2017-08-03T00:39:29.115Z,12.97
2017-08-03T00:41:58.283Z,13.20
2017-08-03T00:44:26.637Z,11.63
2017-08-03T00:46:55.019Z,11.37
2017-08-03T00:49:23.917Z,12.47
2017-08-03T00:51:52.273Z,12.30
2017-08-03T00:54:20.613Z,14.20
2017-08-03T00:56:49.579Z,13.70
2017-08-03T00:59:17.921Z,15.00
2017-08-03T01:01:46.266Z,13.27
2017-08-03T01:04:15.222Z,13.13
2017-08-03T01:06:43.581Z,13.00
2017-08-03T01:09:12.713Z,14.50
2017-08-03T01:11:41.695Z,14.60
2017-08-03T01:14:10.066Z,13.53
2017-08-03T01:16:38.426Z,13.33
2017-08-03T01:19:07.034Z,12.97
2017-08-03T01:21:35.394Z,13.37
2017-08-03T01:24:03.736Z,14.13
2017-08-03T01:26:32.484Z,14.07
2017-08-03T01:29:00.827Z,12.50
2017-08-03T01:31:29.176Z,13.63
2017-08-03T01:33:57.830Z,13.80
2017-08-03T01:36:26.178Z,14.13
2017-08-03T01:38:55.296Z,13.37
2017-08-03T01:41:24.091Z,14.23
2017-08-03T01:43:52.448Z,12.87
2017-08-03T01:46:20.790Z,13.03
2017-08-03T01:48:49.743Z,13.03
2017-08-03T01:51:18.087Z,13.27
2017-08-03T01:53:46.430Z,13.80
2017-08-03T01:56:15.175Z,12.83
2017-08-03T01:58:43.514Z,13.60
2017-08-03T02:01:11.862Z,14.10
2017-08-03T02:03:40.481Z,13.70
2017-08-03T02:06:08.838Z,13.80
2017-08-03T02:08:37.202Z,13.40
2017-08-03T02:11:06.304Z,13.60
2017-08-03T02:13:34.657Z,12.30
2017-08-03T02:16:03.015Z,12.50
2017-08-03T02:18:31.721Z,13.83
2017-08-03T02:21:00.077Z,12.60
2017-08-03T02:23:29.194Z,13.23
2017-08-03T02:25:57.814Z,11.97
2017-08-03T02:28:26.151Z,11.93
2017-08-03T02:30:54.529Z,10.60
2017-08-03T02:33:23.654Z,11.33
2017-08-03T02:35:52.033Z,10.80
2017-08-03T02:38:20.494Z,11.67
2017-08-03T02:40:49.924Z,11.17
2017-08-03T02:43:18.269Z,11.63
2017-08-03T02:45:47.368Z,10.90
2017-08-03T02:48:16.041Z,11.23
2017-08-03T02:50:45.154Z,10.90
2017-08-03T02:53:14.269Z,11.47
2017-08-03T02:55:43.035Z,10.50
2017-08-03T02:58:11.402Z,10.80
2017-08-03T03:00:40.503Z,10.80
2017-08-03T03:03:09.950Z,9.90
2017-08-03T03:05:38.305Z,11.03
2017-08-03T03:08:06.641Z,9.83
2017-08-03T03:10:35.304Z,10.33
2017-08-03T03:13:03.657Z,10.90
2017-08-03T03:15:32.024Z,11.20
2017-08-03T03:18:00.972Z,11.67
2017-08-03T03:20:29.306Z,11.70
2017-08-03T03:22:57.650Z,12.03
2017-08-03T03:25:27.081Z,11.30
2017-08-03T03:27:55.423Z,11.30
2017-08-03T03:30:23.789Z,12.07
2017-08-03T03:32:52.435Z,11.73
2017-08-03T03:35:20.777Z,12.60
2017-08-03T03:37:49.185Z,13.13
2017-08-03T03:40:17.880Z,13.17
2017-08-03T03:42:46.241Z,12.20
2017-08-03T03:45:14.571Z,11.60
2017-08-03T03:47:43.419Z,12.73
2017-08-03T03:50:11.802Z,13.27
2017-08-03T03:52:40.156Z,12.90
2017-08-03T03:55:09.056Z,12.50
2017-08-03T03:57:37.399Z,13.03
2017-08-03T04:00:06.532Z,12.50
2017-08-03T04:02:35.229Z,14.10
2017-08-03T04:05:03.593Z,13.60
2017-08-03T04:07:31.954Z,13.77
2017-08-03T04:10:01.582Z,12.63
2017-08-03T04:12:29.917Z,12.97
2017-08-03T04:14:58.268Z,13.73
2017-08-03T04:17:26.922Z,14.13
2017-08-03T04:19:56.042Z,15.30
2017-08-03T04:22:24.411Z,14.23
2017-08-03T04:24:53.300Z,15.97
2017-08-03T04:27:21.632Z,15.57
2017-08-03T04:29:49.976Z,15.77
2017-08-03T04:32:18.605Z,15.83
2017-08-03T04:34:46.960Z,15.43
2017-08-03T04:37:15.297Z,16.33
2017-08-03T04:39:43.911Z,16.50
2017-08-03T04:42:12.262Z,16.73
2017-08-03T04:44:40.610Z,17.30
2017-08-03T04:47:09.463Z,16.67
2017-08-03T04:49:38.137Z,18.60
2017-08-03T04:52:06.472Z,19.80
2017-08-03T04:54:35.902Z,18.27
2017-08-03T04:57:04.258Z,17.30
2017-08-03T04:59:33.366Z,19.77
2017-08-03T05:02:02.775Z,16.70
2017-08-03T05:04:31.125Z,16.57
2017-08-03T05:06:59.471Z,18.23
2017-08-03T05:09:28.304Z,17.97
2017-08-03T05:11:57.405Z,18.73
2017-08-03T05:14:26.523Z,17.43
2017-08-03T05:16:55.292Z,18.13
2017-08-03T05:19:23.638Z,17.53
2017-08-03T05:21:52.008Z,18.77
2017-08-03T05:24:20.723Z,19.10
2017-08-03T05:26:49.070Z,19.80
2017-08-03T05:29:17.804Z,20.43
2017-08-03T05:31:47.428Z,20.47
2017-08-03T05:34:15.792Z,20.50
2017-08-03T05:36:44.905Z,20.10
2017-08-03T05:39:13.592Z,20.50
2017-08-03T05:41:41.915Z,19.23
2017-08-03T05:44:10.253Z,19.70
2017-08-03T05:46:38.976Z,19.47
2017-08-03T05:49:07.357Z,19.57
2017-08-03T05:51:35.715Z,19.20
2017-08-03T05:54:04.817Z,19.73
2017-08-03T05:56:33.170Z,18.30
2017-08-03T05:59:01.526Z,18.37
2017-08-03T06:01:30.430Z,19.37
2017-08-03T06:03:58.766Z,17.87
2017-08-03T06:06:27.123Z,18.13
2017-08-03T06:08:55.785Z,18.07
2017-08-03T06:11:24.195Z,18.10
2017-08-03T06:13:52.536Z,17.00
2017-08-03T06:16:21.536Z,15.53
2017-08-03T06:18:49.906Z,16.13
2017-08-03T06:21:18.246Z,16.40
2017-08-03T06:23:46.908Z,16.57
2017-08-03T06:26:15.264Z,16.07
2017-08-03T06:28:43.611Z,14.73
2017-08-03T06:31:12.240Z,15.67
2017-08-03T06:33:40.591Z,15.00
2017-08-03T06:36:08.938Z,13.70
2017-08-03T06:38:37.745Z,14.93
2017-08-03T06:41:06.862Z,13.60
2017-08-03T06:43:35.257Z,14.30
2017-08-03T06:46:04.176Z,12.80
2017-08-03T06:48:32.536Z,15.60
2017-08-03T06:51:00.870Z,13.30
2017-08-03T06:53:29.486Z,14.13
2017-08-03T06:55:57.839Z,13.93
2017-08-03T06:58:26.207Z,13.67
2017-08-03T07:00:55.849Z,15.37
2017-08-03T07:03:24.194Z,14.37
2017-08-03T07:05:52.556Z,14.20
2017-08-03T07:08:21.295Z,14.77
2017-08-03T07:10:49.642Z,16.03
2017-08-03T07:13:18.799Z,14.50
2017-08-03T07:15:47.476Z,13.87
2017-08-03T07:18:15.824Z,15.47
2017-08-03T07:20:44.167Z,15.63
2017-08-03T07:23:13.258Z,16.20
2017-08-03T07:25:47.159Z,15.67
2017-08-03T07:28:15.897Z,16.20
2017-08-03T07:30:44.251Z,17.23
2017-08-03T07:33:13.500Z,17.60
2017-08-03T07:35:42.263Z,17.47
2017-08-03T07:38:10.602Z,18.80
2017-08-03T07:40:38.949Z,18.70
2017-08-03T07:43:07.712Z,17.57
2017-08-03T07:45:36.080Z,17.30
2017-08-03T07:48:04.490Z,17.63
2017-08-03T07:50:33.160Z,17.23
2017-08-03T07:53:01.560Z,17.50
2017-08-03T07:55:29.919Z,17.57
2017-08-03T07:57:58.706Z,16.23
2017-08-03T08:00:27.122Z,15.73
2017-08-03T08:02:55.514Z,15.80
2017-08-03T08:05:24.316Z,14.50
2017-08-03T08:07:52.697Z,13.93
2017-08-03T08:10:21.129Z,14.20
2017-08-03T08:12:49.881Z,14.17
2017-08-03T08:15:18.298Z,14.00
2017-08-03T08:17:46.673Z,13.20
2017-08-03T08:20:15.521Z,12.77
2017-08-03T08:22:43.888Z,12.87
2017-08-03T08:25:12.243Z,12.73
2017-08-03T08:27:41.041Z,11.23
2017-08-03T08:30:09.431Z,11.73
2017-08-03T08:32:37.796Z,11.07
2017-08-03T08:35:06.577Z,10.40
2017-08-03T08:37:34.980Z,11.37
2017-08-03T08:40:03.433Z,10.13
2017-08-03T08:42:32.088Z,9.50
2017-08-03T08:45:00.510Z,9.77
2017-08-03T08:47:28.937Z,9.20
2017-08-03T08:49:57.810Z,9.00
2017-08-03T08:52:26.200Z,8.50
2017-08-03T08:54:55.429Z,8.03
2017-08-03T08:57:24.357Z,7.60
2017-08-03T08:59:52.758Z,7.57
2017-08-03T09:02:21.215Z,7.50
2017-08-03T09:04:49.874Z,7.27
2017-08-03T09:07:18.267Z,6.67
2017-08-03T09:09:46.685Z,7.40
2017-08-03T09:12:15.579Z,6.80
2017-08-03T09:14:43.943Z,6.73
2017-08-03T09:17:12.343Z,7.70
2017-08-03T09:19:41.094Z,6.53
2017-08-03T09:22:09.438Z,7.20
2017-08-03T09:24:37.879Z,6.23
2017-08-03T09:27:06.606Z,7.90
2017-08-03T09:29:34.953Z,7.37
2017-08-03T09:32:03.341Z,7.07
2017-08-03T09:34:32.973Z,6.23
2017-08-03T09:37:01.400Z,7.20
2017-08-03T09:39:29.781Z,6.70
2017-08-03T09:41:58.554Z,5.87
2017-08-03T09:44:26.965Z,6.57
2017-08-03T09:46:55.310Z,5.80
2017-08-03T09:49:24.059Z,6.70
2017-08-03T09:51:52.415Z,6.70
2017-08-03T09:54:20.783Z,6.93
2017-08-03T09:56:49.704Z,6.43
2017-08-03T09:59:18.059Z,6.97
2017-08-03T10:01:46.393Z,6.80
2017-08-03T10:04:15.368Z,6.90
2017-08-03T10:06:43.766Z,6.50
2017-08-03T10:09:12.134Z,6.20
2017-08-03T10:11:40.818Z,5.90
2017-08-03T10:14:09.170Z,7.00
2017-08-03T10:16:38.281Z,7.43
2017-08-03T10:19:07.148Z,6.63
2017-08-03T10:21:36.262Z,6.40
2017-08-03T10:24:05.379Z,6.60
2017-08-03T10:26:34.066Z,5.77
2017-08-03T10:29:02.418Z,5.63
2017-08-03T10:31:30.855Z,6.80
2017-08-03T10:33:59.612Z,6.03
2017-08-03T10:36:28.004Z,5.90
2017-08-03T10:38:56.398Z,5.60
2017-08-03T10:41:25.543Z,4.93
2017-08-03T10:43:53.935Z,5.43
2017-08-03T10:46:22.277Z,5.90
2017-08-03T10:48:50.930Z,5.17
2017-08-03T10:51:19.275Z,4.90
2017-08-03T10:53:47.636Z,5.17
2017-08-03T10:56:16.369Z,5.00
2017-08-03T10:58:44.715Z,4.90
2017-08-03T11:01:13.131Z,4.70
2017-08-03T11:03:42.030Z,5.70
2017-08-03T11:06:10.421Z,4.20
2017-08-03T11:08:38.822Z,4.37
2017-08-03T11:11:07.526Z,5.30
2017-08-03T11:13:35.883Z,4.87
2017-08-03T11:16:04.227Z,4.53
2017-08-03T11:18:32.902Z,3.87
2017-08-03T11:21:01.243Z,4.70
2017-08-03T11:23:30.362Z,4.20
2017-08-03T11:25:59.071Z,4.30
2017-08-03T11:28:27.405Z,5.00
2017-08-03T11:30:55.882Z,4.53
2017-08-03T11:33:24.726Z,4.33
2017-08-03T11:35:53.079Z,4.43
2017-08-03T11:38:21.500Z,5.00
2017-08-03T11:40:50.125Z,5.23
2017-08-03T11:43:19.307Z,4.77
2017-08-03T11:45:47.693Z,5.20
2017-08-03T11:48:16.712Z,5.00
2017-08-03T11:50:45.328Z,4.33
2017-08-03T11:53:13.651Z,5.40
2017-08-03T11:55:42.344Z,5.03
2017-08-03T11:58:10.685Z,4.43
2017-08-03T12:00:39.039Z,4.67
2017-08-03T12:03:07.754Z,5.47
2017-08-03T12:05:36.204Z,4.80
2017-08-03T12:08:04.808Z,4.93
2017-08-03T12:10:33.765Z,5.17
2017-08-03T12:13:02.179Z,4.50
2017-08-03T12:15:30.519Z,4.53
2017-08-03T12:17:59.320Z,5.30
2017-08-03T12:20:27.693Z,5.10
2017-08-03T12:22:56.137Z,5.97
2017-08-03T12:25:25.606Z,5.97
2017-08-03T12:27:53.966Z,4.70
2017-08-03T12:30:22.345Z,4.57
2017-08-03T12:32:51.427Z,4.40
2017-08-03T12:35:19.810Z,4.80
2017-08-03T12:37:48.210Z,4.73
2017-08-03T12:40:16.995Z,5.40
2017-08-03T12:42:45.385Z,4.90
2017-08-03T12:45:13.801Z,5.10
2017-08-03T12:47:42.606Z,4.67
2017-08-03T12:50:10.986Z,5.50
2017-08-03T12:52:39.791Z,5.23
2017-08-03T12:55:08.796Z,5.60
2017-08-03T12:57:37.152Z,5.37
2017-08-03T13:00:06.300Z,5.20
2017-08-03T13:02:35.263Z,5.10
2017-08-03T13:05:03.602Z,4.83
2017-08-03T13:07:31.944Z,5.43
2017-08-03T13:10:00.577Z,4.60
2017-08-03T13:12:28.937Z,4.90
2017-08-03T13:14:57.269Z,4.80
2017-08-03T13:17:26.085Z,4.70
2017-08-03T13:19:54.729Z,4.90
2017-08-03T13:22:23.155Z,4.50
2017-08-03T13:24:52.094Z,4.80
2017-08-03T13:27:20.459Z,5.37
2017-08-03T13:29:48.855Z,4.77
2017-08-03T13:32:18.425Z,4.07
2017-08-03T13:34:46.872Z,6.53
2017-08-03T13:37:15.301Z,4.03
2017-08-03T13:39:45.435Z,3.57
2017-08-03T13:42:14.591Z,2.97
2017-08-03T13:44:42.981Z,3.30
2017-08-03T13:47:11.895Z,2.67
2017-08-03T13:49:40.284Z,3.07
2017-08-03T13:52:08.650Z,3.33
2017-08-03T13:54:38.133Z,2.97
2017-08-03T13:57:06.539Z,2.60
2017-08-03T13:59:34.902Z,3.30
2017-08-03T14:02:04.194Z,3.03
2017-08-03T14:04:32.561Z,2.40
2017-08-03T14:07:00.935Z,3.00
2017-08-03T14:09:30.503Z,3.00
2017-08-03T14:11:58.856Z,3.03
2017-08-03T14:14:27.255Z,3.10
2017-08-03T14:16:56.045Z,4.60
2017-08-03T14:19:24.409Z,2.53
2017-08-03T14:21:52.791Z,2.90
2017-08-03T14:24:21.765Z,3.37
2017-08-03T14:26:50.153Z,3.80
2017-08-03T14:29:18.489Z,2.80
2017-08-03T14:31:47.234Z,2.90
2017-08-03T14:34:15.590Z,2.50
2017-08-03T14:36:44.084Z,2.40
2017-08-03T14:39:12.896Z,2.53
2017-08-03T14:41:41.364Z,2.67
2017-08-03T14:44:09.845Z,2.30
2017-08-03T14:46:39.137Z,2.80
2017-08-03T14:49:07.490Z,2.90
2017-08-03T14:51:35.884Z,2.57
2017-08-03T14:54:04.547Z,2.43
2017-08-03T14:56:32.978Z,2.33
2017-08-03T14:59:01.343Z,2.20
2017-08-03T15:01:30.277Z,2.30
2017-08-03T15:03:58.664Z,2.10
2017-08-03T15:06:27.021Z,1.80
2017-08-03T15:08:55.818Z,1.40
2017-08-03T15:11:24.152Z,1.17
2017-08-03T15:13:52.521Z,1.33
2017-08-03T15:16:21.152Z,1.43
2017-08-03T15:18:49.508Z,1.40
2017-08-03T15:21:17.874Z,1.83
2017-08-03T15:23:46.756Z,1.50
2017-08-03T15:26:15.125Z,1.80
2017-08-03T15:28:43.495Z,1.90
2017-08-03T15:31:12.396Z,1.50
2017-08-03T15:33:40.862Z,1.70
2017-08-03T15:36:09.318Z,1.43
2017-08-03T15:38:38.115Z,1.47
2017-08-03T15:41:06.449Z,1.47
2017-08-03T15:43:34.788Z,1.30
2017-08-03T15:46:03.455Z,1.80
2017-08-03T15:48:31.811Z,2.20
2017-08-03T15:51:00.924Z,1.73
2017-08-03T15:53:29.753Z,3.23
2017-08-03T15:55:58.185Z,1.80
2017-08-03T15:58:26.520Z,1.77
2017-08-03T16:00:55.180Z,2.03
2017-08-03T16:03:23.553Z,2.60
2017-08-03T16:05:51.891Z,2.63
2017-08-03T16:08:20.597Z,2.00
2017-08-03T16:10:48.948Z,2.47
2017-08-03T16:13:17.306Z,2.27
2017-08-03T16:15:46.293Z,2.57
2017-08-03T16:18:14.654Z,1.80
2017-08-03T16:20:43.012Z,2.53
2017-08-03T16:23:11.686Z,2.27
2017-08-03T16:25:40.025Z,1.90
2017-08-03T16:28:08.378Z,2.20
2017-08-03T16:30:37.063Z,2.17
2017-08-03T16:33:05.414Z,2.13
2017-08-03T16:35:33.783Z,2.70
2017-08-03T16:38:03.547Z,2.60
2017-08-03T16:40:31.895Z,2.43
2017-08-03T16:43:00.257Z,2.80
2017-08-03T16:45:29.674Z,3.00
2017-08-03T16:47:58.046Z,3.20
2017-08-03T16:50:27.173Z,3.53
2017-08-03T16:52:55.994Z,3.53
2017-08-03T16:55:24.452Z,3.00
2017-08-03T16:57:52.892Z,3.17
2017-08-03T17:00:21.751Z,2.73
2017-08-03T17:02:50.233Z,2.80
2017-08-03T17:05:18.608Z,2.63
2017-08-03T17:07:47.281Z,3.67
2017-08-03T17:10:15.678Z,2.60
2017-08-03T17:12:44.034Z,2.77
2017-08-03T17:15:12.733Z,3.57
2017-08-03T17:17:41.081Z,2.60
2017-08-03T17:20:09.499Z,3.00
2017-08-03T17:22:38.349Z,3.57
2017-08-03T17:25:06.693Z,3.07
2017-08-03T17:27:35.821Z,3.50
2017-08-03T17:30:04.507Z,3.50
2017-08-03T17:32:32.885Z,3.50
2017-08-03T17:35:01.244Z,3.73
2017-08-03T17:37:30.126Z,3.97
2017-08-03T17:39:59.299Z,2.70
2017-08-03T17:42:27.663Z,3.97
2017-08-03T17:44:56.697Z,3.53
2017-08-03T17:47:25.047Z,3.73
2017-08-03T17:49:53.392Z,4.30
2017-08-03T17:52:23.029Z,3.30
2017-08-03T17:54:51.653Z,3.90
2017-08-03T17:57:20.009Z,3.50
2017-08-03T17:59:48.731Z,3.07
2017-08-03T18:02:17.093Z,3.60
2017-08-03T18:04:45.442Z,3.80
2017-08-03T18:07:14.460Z,3.43
2017-08-03T18:09:42.821Z,3.93
2017-08-03T18:12:11.290Z,3.10
2017-08-03T18:14:40.339Z,3.33
2017-08-03T18:17:08.739Z,3.80
2017-08-03T18:19:37.170Z,2.83
2017-08-03T18:22:06.094Z,3.40
2017-08-03T18:24:34.561Z,3.50
2017-08-03T18:27:02.930Z,2.80
2017-08-03T18:29:31.890Z,4.07
2017-08-03T18:32:00.309Z,3.47
2017-08-03T18:34:28.728Z,2.90
2017-08-03T18:36:57.464Z,3.00
2017-08-03T18:39:25.826Z,3.20
2017-08-03T18:41:54.193Z,2.80
2017-08-03T18:44:22.879Z,3.00
2017-08-03T18:46:51.233Z,2.97
2017-08-03T18:49:19.647Z,3.60
2017-08-03T18:51:48.675Z,3.23
2017-08-03T18:54:17.794Z,2.77
2017-08-03T18:56:46.186Z,3.17
2017-08-03T18:59:15.074Z,3.90
2017-08-03T19:01:43.422Z,3.03
2017-08-03T19:04:11.802Z,3.20
2017-08-03T19:06:40.454Z,3.83
2017-08-03T19:09:08.825Z,3.20
2017-08-03T19:11:37.248Z,3.27
2017-08-03T19:14:06.005Z,3.70
2017-08-03T19:16:34.507Z,4.63
2017-08-03T19:19:02.938Z,4.27
2017-08-03T19:21:31.693Z,3.10
2017-08-03T19:24:00.942Z,3.70
2017-08-03T19:26:29.439Z,3.63
2017-08-03T19:28:58.252Z,3.27
2017-08-03T19:31:26.631Z,3.37
2017-08-03T19:33:55.822Z,3.03
2017-08-03T19:36:24.822Z,3.17
2017-08-03T19:38:53.193Z,3.93
2017-08-03T19:41:21.570Z,3.70
2017-08-03T19:43:50.251Z,3.47
2017-08-03T19:46:18.655Z,3.90
2017-08-03T19:48:47.089Z,3.57
2017-08-03T19:51:15.880Z,3.47
2017-08-03T19:53:44.275Z,3.70
2017-08-03T19:56:12.681Z,3.50
2017-08-03T19:58:41.844Z,3.97
2017-08-03T20:01:11.249Z,3.50
2017-08-03T20:03:39.754Z,3.47
2017-08-03T20:06:08.433Z,3.70
2017-08-03T20:08:39.853Z,3.67
2017-08-03T20:11:16.231Z,3.90
2017-08-03T20:13:45.428Z,3.37
2017-08-03T20:16:13.834Z,3.27
2017-08-03T20:18:42.993Z,3.17
2017-08-03T20:21:11.395Z,3.10
2017-08-03T20:23:39.822Z,3.77
2017-08-03T20:26:08.480Z,3.47
2017-08-03T20:28:36.920Z,2.90
2017-08-03T20:31:05.267Z,3.13
2017-08-03T20:33:33.940Z,6.10
2017-08-03T20:36:02.281Z,3.03
2017-08-03T20:38:30.663Z,2.53
2017-08-03T20:40:59.416Z,3.13
2017-08-03T20:43:27.801Z,2.60
2017-08-03T20:45:56.244Z,3.90
2017-08-03T20:48:25.780Z,3.27
2017-08-03T20:50:54.196Z,2.63
2017-08-03T20:53:22.597Z,3.63
2017-08-03T20:55:51.240Z,3.10
2017-08-03T20:58:19.581Z,4.00
2017-08-03T21:00:47.911Z,3.20
2017-08-03T21:03:16.773Z,2.80
2017-08-03T21:05:45.134Z,3.50
2017-08-03T21:08:13.472Z,3.90
2017-08-03T21:10:42.166Z,2.90
2017-08-03T21:13:10.496Z,3.00
2017-08-03T21:15:38.851Z,2.80
2017-08-03T21:18:08.370Z,3.20
2017-08-03T21:20:36.727Z,3.77
2017-08-03T21:23:05.075Z,2.90
2017-08-03T21:25:34.129Z,3.67
2017-08-03T21:28:02.462Z,3.13
2017-08-03T21:30:30.821Z,4.30
2017-08-03T21:32:59.614Z,3.50
2017-08-03T21:35:27.961Z,3.23
2017-08-03T21:37:56.298Z,3.30
2017-08-03T21:40:25.027Z,2.83
2017-08-03T21:42:53.367Z,3.57
2017-08-03T21:45:21.703Z,2.97
2017-08-03T21:47:50.471Z,3.73
2017-08-03T21:50:18.825Z,3.50
2017-08-03T21:52:47.957Z,2.90
2017-08-03T21:55:16.604Z,2.80
2017-08-03T21:57:45.721Z,3.47
2017-08-03T22:00:14.058Z,2.93
2017-08-03T22:02:42.709Z,5.13
2017-08-03T22:05:11.060Z,3.23
2017-08-03T22:07:39.406Z,3.37
2017-08-03T22:10:08.132Z,3.10
2017-08-03T22:12:36.483Z,3.60
2017-08-03T22:15:04.817Z,3.43
2017-08-03T22:17:33.467Z,2.83
2017-08-03T22:20:01.822Z,3.30
2017-08-03T22:22:30.951Z,2.87
2017-08-03T22:25:00.282Z,3.27
2017-08-03T22:27:28.633Z,2.80
2017-08-03T22:29:56.963Z,3.20
2017-08-03T22:32:26.142Z,2.97
2017-08-03T22:34:54.484Z,2.93
2017-08-03T22:37:22.817Z,3.37
2017-08-03T22:39:51.651Z,3.57
2017-08-03T22:42:19.970Z,3.67
2017-08-03T22:44:48.310Z,3.00
2017-08-03T22:47:16.934Z,2.87
2017-08-03T22:49:45.280Z,3.57
2017-08-03T22:52:13.627Z,3.20
2017-08-03T22:54:42.379Z,3.20
2017-08-03T22:57:10.722Z,3.20
2017-08-03T22:59:39.082Z,3.30
2017-08-03T23:02:07.719Z,2.90
2017-08-03T23:04:36.054Z,3.40
2017-08-03T23:07:04.400Z,2.67
2017-08-03T23:09:33.221Z,2.47
2017-08-03T23:12:01.546Z,2.57
2017-08-03T23:14:29.878Z,3.27
2017-08-03T23:16:58.867Z,2.23
2017-08-03T23:19:27.221Z,2.80
2017-08-03T23:21:55.571Z,2.80
2017-08-03T23:24:24.334Z,2.97
2017-08-03T23:26:52.678Z,2.60
2017-08-03T23:29:21.782Z,3.07
2017-08-03T23:31:51.145Z,2.40
2017-08-03T23:34:19.483Z,2.97
2017-08-03T23:36:47.829Z,2.90
2017-08-03T23:39:16.856Z,2.50
2017-08-03T23:41:45.206Z,2.73
2017-08-03T23:44:13.549Z,3.00
2017-08-03T23:46:42.278Z,2.90
2017-08-03T23:49:10.639Z,2.67
2017-08-03T23:51:38.971Z,3.00
2017-08-03T23:54:07.744Z,2.73
2017-08-03T23:56:36.095Z,3.20
2017-08-03T23:59:04.440Z,3.03
